NORTHEAST SUFFOLK  -  Winter Weather Advisory Winter Weather Advisory     Winter Weather Advisory Winter Weather Advisory        NORTHERN NASSAU  -  Winter Weather Advisory Winter Weather Advisory        NORTHWEST SUFFOLK  -  Winter Weather Advisory Winter Weather Advisory     Winter Weather Advisory Winter Weather Advisory        SOUTHEAST SUFFOLK  -  Winter Weather Advisory Winter Weather Advisory     Winter Weather Advisory Winter Weather Advisory        SOUTHERN NASSAU  -  Winter Weather Advisory Winter Weather Advisory        SOUTHWEST SUFFOLK  -  Winter Weather Advisory Winter Weather Advisory     Winter Weather Advisory Winter Weather Advisory      

Active alerts

Northern Nassau
  Details for Northern Nassau Winter Weather Advisory
Southern Nassau
  Details for Southern Nassau Winter Weather Advisory
Northwest Suffolk
  Details for Northwest Suffolk Winter Weather Advisory  +1 additional alert
Southwest Suffolk
  Details for Southwest Suffolk Winter Weather Advisory  +1 additional alert
Northeast Suffolk
  Details for Northeast Suffolk Winter Weather Advisory  +1 additional alert
Southeast Suffolk
  Details for Southeast Suffolk Winter Weather Advisory  +1 additional alert


WXM80 ListenWXM80 Stop

You find our weather info also at:

UK Metoffice

WeatherCloud

Weather Underground

Northeastern Weather Network

AWEKAS

Citizen Weather Observer Program (CWOP)

HAMweather, WeatherForYou, PWS Weather


Weather Underground History page Text

Daily Summary for September 2, 2017 Units:  Metric    English   Both
« Previous Day
Next Day »
Daily Weekly Monthly Yearly Custom
  High: Low: Average:
Temperature: 20.8 °C 14.2 °C 16.7 °C
Dew Point: 13.7 °C 7.7 °C 11 °C
Humidity: 93 % 53 % 70 %
Wind Speed: 12.4 km/h 0 km/h 2.6 km/h
Wind Gust: 20.9 km/h - -
Wind:- - East
Pressure: 1022.9 hPa 1018.5 hPa -
Precipitation: 5.08 mm    
Historical Graphs
 
 
Tabular Data for September 2, 2017
Time Temperature Dew Point Pressure Wind Wind Speed Wind Gust Humidity Rainfall Rate (Hourly)
00:02 17.1 °C 7.7 °C 1020.5 hPa NE 6.9 km/h 11.3 km/h 54 % 0 mm
00:07 17 °C 7.9 °C 1020.5 hPa NE 10.1 km/h 14.5 km/h 55 % 0 mm
00:12 16.9 °C 7.8 °C 1020.5 hPa NNE 5.6 km/h 11.1 km/h 55 % 0 mm
00:17 16.8 °C 8 °C 1020.9 hPa NNE 9.8 km/h 18.5 km/h 56 % 0 mm
00:22 16.7 °C 7.9 °C 1020.5 hPa NNE 5.3 km/h 13 km/h 56 % 0 mm
00:27 16.7 °C 8.3 °C 1020.5 hPa NNE 5.6 km/h 8 km/h 58 % 0 mm
00:32 16.6 °C 8.3 °C 1020.9 hPa North 7.1 km/h 14.8 km/h 58 % 0 mm
00:37 16.4 °C 8.2 °C 1020.5 hPa NNE 9.3 km/h 18.5 km/h 58 % 0 mm
00:42 16.3 °C 8.1 °C 1020.5 hPa NNE 7.1 km/h 14.8 km/h 58 % 0 mm
00:52 16.2 °C 8.2 °C 1020.9 hPa NE 8.2 km/h 13 km/h 59 % 0 mm
00:58 16.2 °C 8.4 °C 1020.9 hPa North 12.4 km/h 18.5 km/h 60 % 0 mm
01:03 16.1 °C 8.3 °C 1020.9 hPa NNE 6.1 km/h 13 km/h 60 % 0 mm
01:08 16.1 °C 8.8 °C 1020.9 hPa NE 5.1 km/h 7.4 km/h 62 % 0 mm
01:13 16 °C 8.7 °C 1020.9 hPa NNE 5.6 km/h 14.8 km/h 62 % 0 mm
01:18 15.9 °C 8.7 °C 1020.5 hPa NNE 8.5 km/h 16.7 km/h 62 % 0 mm
01:23 15.8 °C 8.6 °C 1020.9 hPa NNE 8.9 km/h 18.5 km/h 62 % 0 mm
01:28 15.8 °C 8.5 °C 1020.9 hPa North 10.1 km/h 18.5 km/h 62 % 0 mm
01:33 15.7 °C 8.7 °C 1020.9 hPa NNE 5.8 km/h 18.5 km/h 63 % 0 mm
01:38 15.7 °C 8.9 °C 1020.9 hPa NE 11.3 km/h 18.5 km/h 64 % 0 mm
01:43 15.6 °C 8.8 °C 1020.9 hPa North 10.1 km/h 20.9 km/h 64 % 0 mm
01:48 15.6 °C 8.8 °C 1020.9 hPa North 4.8 km/h 13 km/h 64 % 0 mm
01:53 15.6 °C 8.8 °C 1020.9 hPa North 5.5 km/h 14.8 km/h 64 % 0 mm
01:58 15.5 °C 8.7 °C 1020.9 hPa NNE 5.6 km/h 9.3 km/h 64 % 0 mm
02:03 15.4 °C 8.7 °C 1020.9 hPa North 5.5 km/h 14.5 km/h 64 % 0 mm
02:08 15.3 °C 8.6 °C 1020.5 hPa NE 6.6 km/h 12.9 km/h 64 % 0 mm
02:13 15.3 °C 8.8 °C 1020.5 hPa NNW 7.7 km/h 13 km/h 65 % 0 mm
02:18 15.3 °C 8.7 °C 1020.9 hPa North 10.6 km/h 16.1 km/h 65 % 0 mm
02:23 15.2 °C 8.7 °C 1020.9 hPa North 9 km/h 16.7 km/h 65 % 0 mm
02:28 15.2 °C 8.9 °C 1020.5 hPa NNE 5.5 km/h 14.5 km/h 66 % 0 mm
02:33 15.2 °C 8.8 °C 1020.5 hPa North 9.3 km/h 13 km/h 66 % 0 mm
02:38 15.2 °C 8.8 °C 1020.5 hPa NNE 11.6 km/h 20.4 km/h 66 % 0 mm
02:43 15.1 °C 9 °C 1020.5 hPa North 7.9 km/h 11.3 km/h 67 % 0 mm
02:48 15.1 °C 9 °C 1020.5 hPa NNE 11.1 km/h 18.5 km/h 67 % 0 mm
02:53 15.1 °C 8.9 °C 1020.9 hPa North 11.4 km/h 14.8 km/h 67 % 0 mm
02:58 15.1 °C 9.2 °C 1020.9 hPa NNE 9.7 km/h 13 km/h 68 % 0 mm
03:03 15 °C 8.9 °C 1020.9 hPa NNE 6.4 km/h 12.9 km/h 67 % 0 mm
03:08 15 °C 9.1 °C 1020.9 hPa North 9.3 km/h 13 km/h 68 % 0 mm
03:14 15 °C 9.3 °C 1020.9 hPa NNE 6.8 km/h 14.8 km/h 69 % 0 mm
03:19 14.9 °C 9.5 °C 1020.9 hPa NNE 6.6 km/h 13 km/h 70 % 0 mm
03:24 14.9 °C 9.7 °C 1020.5 hPa NNE 2.3 km/h 5.6 km/h 71 % 0 mm
03:29 14.9 °C 9.7 °C 1020.5 hPa NNE 5.1 km/h 9.3 km/h 71 % 0 mm
03:34 14.9 °C 9.4 °C 1020.5 hPa North 2.7 km/h 7.4 km/h 70 % 0 mm
03:39 14.8 °C 9 °C 1020.5 hPa NNE 4.7 km/h 11.3 km/h 68 % 0 mm
03:44 14.8 °C 8.7 °C 1020.5 hPa NNE 7.9 km/h 16.1 km/h 67 % 0 mm
03:49 14.8 °C 8.9 °C 1020.5 hPa East 7.7 km/h 14.8 km/h 68 % 0 mm
03:54 14.8 °C 8.9 °C 1020.5 hPa NNE 7.7 km/h 13 km/h 68 % 0 mm
03:59 14.8 °C 9.2 °C 1020.5 hPa NE 8.4 km/h 11.1 km/h 69 % 0 mm
04:04 14.8 °C 9.2 °C 1020.5 hPa NE 9.7 km/h 14.8 km/h 69 % 0 mm
04:09 14.8 °C 9.2 °C 1020.5 hPa North 11.3 km/h 20.4 km/h 69 % 0 mm
04:14 14.8 °C 9.2 °C 1020.5 hPa ENE 3.5 km/h 11.1 km/h 69 % 0 mm
04:19 14.8 °C 9.3 °C 1020.5 hPa ENE 7.9 km/h 18.5 km/h 70 % 0 mm
04:24 14.7 °C 9.7 °C 1020.5 hPa NNW 6.1 km/h 14.8 km/h 72 % 0 mm
04:29 14.7 °C 9.9 °C 1020.5 hPa NNE 4.3 km/h 14.8 km/h 73 % 0 mm
04:35 14.6 °C 9.8 °C 1020.5 hPa NNE 6.6 km/h 14.8 km/h 73 % 0 mm
04:40 14.5 °C 9.7 °C 1020.9 hPa ENE 5.6 km/h 11.3 km/h 73 % 0 mm
04:45 14.4 °C 9.6 °C 1020.9 hPa NNE 5.3 km/h 11.1 km/h 73 % 0 mm
04:50 14.3 °C 9.3 °C 1020.9 hPa ENE 4 km/h 7.4 km/h 72 % 0 mm
04:55 14.3 °C 9.3 °C 1020.9 hPa NNE 6.8 km/h 18.5 km/h 72 % 0 mm
05:00 14.3 °C 9.3 °C 1021.2 hPa NE 3.4 km/h 9.3 km/h 72 % 0 mm
05:05 14.3 °C 9.3 °C 1021.2 hPa NE 3.9 km/h 11.1 km/h 72 % 0 mm
05:10 14.3 °C 9.3 °C 1021.2 hPa NNE 1.4 km/h 5.6 km/h 72 % 0 mm
05:15 14.3 °C 9.3 °C 1021.2 hPa NE 5.3 km/h 13 km/h 72 % 0 mm
05:20 14.2 °C 9.2 °C 1021.2 hPa NE 3.4 km/h 8 km/h 72 % 0 mm
05:25 14.2 °C 9.2 °C 1021.2 hPa ENE 4.8 km/h 13 km/h 72 % 0 mm
05:30 14.2 °C 9.4 °C 1021.2 hPa ENE 1.3 km/h 5.6 km/h 73 % 0 mm
05:35 14.2 °C 9.4 °C 1021.2 hPa NE 2.6 km/h 4.8 km/h 73 % 0 mm
05:40 14.3 °C 9.5 °C 1021.2 hPa ENE 2.9 km/h 5.6 km/h 73 % 0 mm
05:42 14.3 °C 9.5 °C 1021.2 hPa ENE 0.5 km/h 3.7 km/h 73 % 0 mm
05:47 14.3 °C 9.5 °C 1020.9 hPa ENE 5.3 km/h 14.8 km/h 73 % 0 mm
05:57 14.3 °C 9.8 °C 1021.2 hPa NE 5.1 km/h 8 km/h 74 % 0 mm
06:02 14.4 °C 9.9 °C 1020.9 hPa NE 5.8 km/h 16.7 km/h 74 % 0 mm
06:07 14.5 °C 10.1 °C 1020.9 hPa ENE 6 km/h 6.4 km/h 75 % 0 mm
06:12 14.5 °C 10.1 °C 1020.9 hPa ENE 6.9 km/h 13 km/h 75 % 0 mm
06:17 14.6 °C 10.2 °C 1020.9 hPa ENE 5.3 km/h 14.8 km/h 75 % 0 mm
06:22 14.6 °C 10.2 °C 1021.2 hPa NE 5.5 km/h 14.8 km/h 75 % 0 mm
06:28 14.6 °C 10.2 °C 1021.2 hPa NE 6 km/h 16.7 km/h 75 % 0 mm
06:33 14.7 °C 10.3 °C 1021.6 hPa ENE 3.7 km/h 5.6 km/h 75 % 0 mm
06:38 14.7 °C 10.3 °C 1021.2 hPa ENE 5 km/h 7.4 km/h 75 % 0 mm
06:43 14.7 °C 10.3 °C 1021.6 hPa ENE 4.2 km/h 7.4 km/h 75 % 0 mm
06:48 14.7 °C 10.3 °C 1021.6 hPa East 7.1 km/h 13 km/h 75 % 0 mm
06:53 14.7 °C 10.5 °C 1021.6 hPa NE 4.5 km/h 13 km/h 76 % 0 mm
06:58 14.7 °C 10.3 °C 1021.9 hPa NE 3.7 km/h 7.4 km/h 75 % 0 mm
07:03 14.8 °C 10.4 °C 1021.9 hPa ENE 3.7 km/h 7.4 km/h 75 % 0 mm
07:08 14.8 °C 10.4 °C 1021.9 hPa ENE 3.5 km/h 11.1 km/h 75 % 0 mm
07:13 14.8 °C 10.7 °C 1021.9 hPa ENE 3.2 km/h 7.4 km/h 76 % 0 mm
07:18 14.9 °C 10.7 °C 1021.9 hPa NE 1.8 km/h 5.6 km/h 76 % 0 mm
07:23 14.9 °C 10.7 °C 1021.9 hPa ENE 0.6 km/h 3.7 km/h 76 % 0 mm
07:28 15 °C 10.6 °C 1021.9 hPa ENE 4.2 km/h 5.6 km/h 75 % 0 mm
07:33 15.1 °C 10.7 °C 1021.9 hPa ENE 2.1 km/h 4.8 km/h 75 % 0 mm
07:38 15.2 °C 10.6 °C 1021.9 hPa ENE 3.4 km/h 7.4 km/h 74 % 0 mm
07:43 15.3 °C 10.9 °C 1021.9 hPa ENE 2.9 km/h 5.6 km/h 75 % 0 mm
07:48 15.3 °C 10.9 °C 1021.9 hPa ENE 3.5 km/h 11.3 km/h 75 % 0 mm
07:53 15.3 °C 11.1 °C 1021.9 hPa ENE 6.1 km/h 11.3 km/h 76 % 0 mm
07:58 15.4 °C 11.2 °C 1022.2 hPa ENE 1 km/h 4.8 km/h 76 % 0 mm
08:03 15.5 °C 11.1 °C 1022.2 hPa ENE 4.8 km/h 13 km/h 75 % 0 mm
08:08 15.6 °C 11.2 °C 1022.6 hPa NE 4 km/h 5.6 km/h 75 % 0 mm
08:13 15.7 °C 11.3 °C 1022.6 hPa ENE 2.1 km/h 14.8 km/h 75 % 0 mm
08:19 15.8 °C 11.3 °C 1022.6 hPa ENE 2.7 km/h 5.6 km/h 75 % 0 mm
08:24 15.9 °C 11.4 °C 1022.6 hPa ENE 4.8 km/h 5.6 km/h 75 % 0 mm
08:29 15.9 °C 11.3 °C 1022.9 hPa ENE 2.3 km/h 5.6 km/h 74 % 0 mm
08:34 16.1 °C 11.6 °C 1022.6 hPa ENE 4.8 km/h 8 km/h 75 % 0 mm
08:35 16.1 °C 11.4 °C 1022.6 hPa ENE 6.4 km/h 13 km/h 74 % 0 mm
08:40 16.2 °C 11.5 °C 1022.6 hPa NE 6.1 km/h 12.9 km/h 74 % 0 mm
08:45 16.3 °C 11.6 °C 1022.2 hPa NE 3.5 km/h 14.8 km/h 74 % 0 mm
08:50 16.3 °C 11.7 °C 1022.2 hPa NE 5.6 km/h 11.1 km/h 74 % 0 mm
08:55 16.4 °C 11.7 °C 1022.2 hPa ENE 2.7 km/h 7.4 km/h 74 % 0 mm
09:00 16.4 °C 11.6 °C 1022.2 hPa ENE 5.3 km/h 11.1 km/h 73 % 0 mm
09:05 16.5 °C 11.7 °C 1022.2 hPa ENE 5.8 km/h 13 km/h 73 % 0 mm
09:10 16.5 °C 11.4 °C 1022.2 hPa ENE 2.3 km/h 13 km/h 72 % 0 mm
09:15 16.6 °C 11.6 °C 1022.6 hPa NE 2.4 km/h 9.3 km/h 72 % 0 mm
09:21 16.7 °C 11.4 °C 1022.6 hPa NE 1.6 km/h 9.7 km/h 71 % 0 mm
09:26 16.8 °C 11.5 °C 1022.9 hPa ENE 1.6 km/h 9.7 km/h 71 % 0 mm
09:31 16.8 °C 11.3 °C 1022.9 hPa Calm   4.8 km/h 70 % 0 mm
09:36 16.9 °C 11.4 °C 1022.6 hPa NE 1.6 km/h 6.4 km/h 70 % 0 mm
09:41 17.1 °C 11.6 °C 1022.6 hPa ENE 3.2 km/h 6.4 km/h 70 % 0 mm
09:42 17.1 °C 11.6 °C 1022.6 hPa ENE 1.1 km/h 5.6 km/h 70 % 0 mm
09:47 17.2 °C 11.7 °C 1022.9 hPa NE 0.8 km/h 3.7 km/h 70 % 0 mm
09:52 17.3 °C 11.8 °C 1022.9 hPa NE 2.1 km/h 5.6 km/h 70 % 0 mm
09:57 17.4 °C 11.4 °C 1022.9 hPa NE 2.1 km/h 5.6 km/h 68 % 0 mm
10:02 17.5 °C 11.7 °C 1022.6 hPa ENE 0.5 km/h 3.7 km/h 69 % 0 mm
10:07 17.6 °C 11.3 °C 1022.6 hPa ENE 0.3 km/h 3.7 km/h 67 % 0 mm
10:12 17.6 °C 11.2 °C 1022.9 hPa ENE 4 km/h 8 km/h 66 % 0 mm
10:17 17.7 °C 11.3 °C 1022.9 hPa Calm   1.9 km/h 66 % 0 mm
10:22 17.8 °C 11.3 °C 1022.9 hPa ENE 0.2 km/h 1.9 km/h 66 % 0 mm
10:27 17.8 °C 11.2 °C 1022.9 hPa Calm   1.9 km/h 65 % 0 mm
10:32 17.9 °C 11.3 °C 1022.9 hPa ENE 0.3 km/h 1.9 km/h 65 % 0 mm
10:37 18.1 °C 11.4 °C 1022.9 hPa ENE 0.2 km/h 1.9 km/h 65 % 0 mm
10:42 18.1 °C 10.9 °C 1022.9 hPa ENE 0.3 km/h 1.9 km/h 63 % 0 mm
10:47 18.2 °C 11.6 °C 1022.9 hPa Calm     65 % 0 mm
10:52 18.3 °C 10.9 °C 1022.9 hPa NE 1 km/h 5.6 km/h 62 % 0 mm
10:57 18.4 °C 11 °C 1022.6 hPa NE 0.3 km/h 3.7 km/h 62 % 0 mm
11:02 18.4 °C 11.3 °C 1022.6 hPa NE 0.6 km/h 1.9 km/h 63 % 0 mm
11:07 18.5 °C 11.1 °C 1022.9 hPa SE 1 km/h 5.6 km/h 62 % 0 mm
11:12 18.6 °C 10.9 °C 1022.6 hPa Calm     61 % 0 mm
11:17 18.6 °C 11.4 °C 1022.6 hPa SE 1 km/h 5.6 km/h 63 % 0 mm
11:22 18.7 °C 11.2 °C 1022.6 hPa SE 0.2 km/h 3.7 km/h 62 % 0 mm
11:27 18.7 °C 10.8 °C 1022.6 hPa Calm   1.9 km/h 60 % 0 mm
11:32 18.7 °C 11.1 °C 1022.6 hPa SE 0.2 km/h 1.9 km/h 61 % 0 mm
11:37 18.8 °C 10.8 °C 1022.6 hPa SE 0.5 km/h 1.9 km/h 60 % 0 mm
11:42 18.8 °C 10.7 °C 1022.6 hPa Calm     59 % 0 mm
11:47 18.9 °C 10.9 °C 1022.2 hPa Calm     60 % 0 mm
11:52 18.9 °C 10.7 °C 1022.6 hPa Calm   1.9 km/h 59 % 0 mm
11:57 18.9 °C 11 °C 1022.2 hPa Calm   1.9 km/h 60 % 0 mm
12:02 19.1 °C 11.1 °C 1022.2 hPa Calm     60 % 0 mm
12:07 19.2 °C 10.7 °C 1022.2 hPa East 0.2 km/h 3.2 km/h 58 % 0 mm
12:12 19.3 °C 10.6 °C 1022.2 hPa Calm   1.6 km/h 57 % 0 mm
12:17 19.4 °C 11.2 °C 1022.2 hPa Calm     59 % 0 mm
12:22 19.4 °C 10.2 °C 1022.2 hPa East 0.2 km/h 1.9 km/h 55 % 0 mm
12:27 19.5 °C 11.3 °C 1022.2 hPa East 0.3 km/h   59 % 0 mm
12:32 19.7 °C 11.5 °C 1022.2 hPa Calm   1.9 km/h 59 % 0 mm
12:37 20.1 °C 11.3 °C 1021.9 hPa ESE 0.2 km/h 1.9 km/h 57 % 0 mm
12:42 20.5 °C 11.7 °C 1021.9 hPa NNE 1.1 km/h 3.7 km/h 57 % 0 mm
12:48 20.7 °C 11.3 °C 1021.9 hPa NE 5.6 km/h 7.4 km/h 55 % 0 mm
12:53 20.7 °C 11.3 °C 1021.9 hPa ESE 1.4 km/h 3.7 km/h 55 % 0 mm
12:58 20.8 °C 11.1 °C 1021.9 hPa Calm   1.9 km/h 54 % 0 mm
13:03 20.8 °C 10.8 °C 1021.9 hPa NE 1.3 km/h 3.7 km/h 53 % 0 mm
13:08 20.6 °C 10.7 °C 1021.6 hPa NE 3.9 km/h 6.4 km/h 53 % 0 mm
13:13 20.3 °C 10.9 °C 1021.9 hPa NE 1 km/h 5.6 km/h 55 % 0 mm
13:18 20.2 °C 11.1 °C 1021.6 hPa Calm   1.9 km/h 56 % 0 mm
13:23 20.1 °C 11.1 °C 1021.6 hPa Calm     56 % 0 mm
13:28 20 °C 10.9 °C 1021.6 hPa NE 0.6 km/h 1.9 km/h 56 % 0 mm
13:33 19.8 °C 11.3 °C 1021.6 hPa Calm   1.9 km/h 58 % 0 mm
13:38 19.8 °C 11.6 °C 1021.6 hPa Calm   1.6 km/h 59 % 0 mm
13:43 19.8 °C 11.6 °C 1021.6 hPa NE 0.2 km/h 1.9 km/h 59 % 0 mm
13:48 19.8 °C 10.8 °C 1021.6 hPa ENE 0.6 km/h 1.9 km/h 56 % 0 mm
13:53 19.8 °C 10.5 °C 1021.6 hPa ENE 0.8 km/h 3.7 km/h 55 % 0 mm
13:58 19.8 °C 10.8 °C 1021.6 hPa Calm   1.9 km/h 56 % 0 mm
14:03 19.8 °C 10.5 °C 1021.6 hPa ENE 0.2 km/h 1.6 km/h 55 % 0 mm
14:08 19.8 °C 10.8 °C 1021.2 hPa Calm     56 % 0 mm
14:13 19.8 °C 11.1 °C 1021.6 hPa ESE 1.4 km/h 3.2 km/h 57 % 0 mm
14:18 19.8 °C 10.5 °C 1021.6 hPa SE 1.3 km/h 5.6 km/h 55 % 0 mm
14:23 19.8 °C 11.6 °C 1021.6 hPa Calm   1.6 km/h 59 % 0 mm
14:28 19.8 °C 11.6 °C 1021.2 hPa SE 0.2 km/h 1.9 km/h 59 % 0 mm
14:33 19.7 °C 10.7 °C 1021.2 hPa SE 3.1 km/h 3.7 km/h 56 % 0 mm
14:38 19.7 °C 11.4 °C 1021.2 hPa SSE 0.2 km/h 9.3 km/h 59 % 0 mm
14:43 19.7 °C 11.4 °C 1021.2 hPa Calm     59 % 0 mm
14:48 19.7 °C 11.2 °C 1021.2 hPa Calm   1.9 km/h 58 % 0 mm
14:53 19.7 °C 11.4 °C 1021.2 hPa Calm     59 % 0 mm
14:58 19.6 °C 11.6 °C 1021.2 hPa Calm   3.7 km/h 60 % 0 mm
15:03 19.6 °C 10.8 °C 1020.9 hPa SE 0.3 km/h 5.6 km/h 57 % 0 mm
15:09 19.6 °C 11.6 °C 1021.2 hPa SE 1.1 km/h 1.9 km/h 60 % 0 mm
15:14 19.5 °C 11.5 °C 1020.9 hPa Calm   1.9 km/h 60 % 0 mm
15:19 19.4 °C 11.5 °C 1020.9 hPa SE 0.6 km/h 5.6 km/h 60 % 0 mm
15:24 19.3 °C 11.1 °C 1020.9 hPa Calm     59 % 0 mm
15:29 19.3 °C 10.6 °C 1020.5 hPa SE 0.6 km/h 1.9 km/h 57 % 0 mm
15:34 19.3 °C 10.3 °C 1020.5 hPa Calm   1.9 km/h 56 % 0 mm
15:39 19.2 °C 10.7 °C 1020.5 hPa Calm     58 % 0 mm
15:44 19.1 °C 10.1 °C 1020.5 hPa Calm     56 % 0 mm
15:49 19.1 °C 10.9 °C 1020.5 hPa Calm     59 % 0 mm
15:54 19.1 °C 10.9 °C 1020.5 hPa Calm     59 % 0 mm
15:59 19.1 °C 11.2 °C 1020.2 hPa Calm     60 % 0 mm
16:04 19.1 °C 10.4 °C 1020.2 hPa Calm     57 % 0 mm
16:09 19.1 °C 10.8 °C 1020.2 hPa Calm     59 % 0 mm
16:14 19.1 °C 11.7 °C 1020.2 hPa Calm     62 % 0 mm
16:19 19.1 °C 11.2 °C 1020.2 hPa Calm   1.9 km/h 60 % 0 mm
16:24 19.1 °C 11.1 °C 1020.2 hPa Calm   1.9 km/h 60 % 0 mm
16:29 19.1 °C 10.6 °C 1020.2 hPa Calm     58 % 0 mm
16:34 19 °C 11.1 °C 1020.2 hPa Calm   1.6 km/h 60 % 0 mm
16:39 19 °C 11.3 °C 1020.2 hPa Calm     61 % 0 mm
16:44 18.9 °C 11 °C 1020.2 hPa Calm     60 % 0 mm
16:49 18.9 °C 11.3 °C 1020.2 hPa Calm   1.9 km/h 61 % 0 mm
16:54 18.8 °C 11.2 °C 1020.2 hPa Calm     61 % 0 mm
17:00 18.8 °C 11.4 °C 1020.2 hPa Calm     62 % 0 mm
17:05 18.8 °C 11.6 °C 1020.2 hPa Calm     63 % 0 mm
17:10 18.7 °C 11.3 °C 1020.2 hPa SW 1.6 km/h 3.7 km/h 62 % 0 mm
17:15 18.7 °C 11.2 °C 1020.2 hPa SW 1 km/h 4.8 km/h 62 % 0 mm
17:20 18.6 °C 11.2 °C 1020.2 hPa SW 0.2 km/h 1.9 km/h 62 % 0 mm
17:25 18.6 °C 11.1 °C 1020.2 hPa Calm   1.9 km/h 62 % 0 mm
17:30 18.4 °C 11.3 °C 1020.2 hPa SW 0.5 km/h 5.6 km/h 63 % 0 mm
17:35 18.3 °C 11.6 °C 1020.2 hPa Calm     65 % 0 mm
17:40 18.2 °C 11.9 °C 1020.2 hPa Calm     67 % 0 mm
17:45 18.1 °C 11.8 °C 1020.2 hPa Calm     67 % 0 mm
17:50 17.9 °C 11.7 °C 1019.9 hPa Calm     67 % 0 mm
17:55 17.8 °C 11.8 °C 1019.9 hPa Calm     68 % 0 mm
18:00 17.8 °C 11.8 °C 1019.9 hPa Calm     68 % 0 mm
18:05 17.7 °C 11.9 °C 1019.9 hPa Calm   1.9 km/h 69 % 0 mm
18:10 17.7 °C 11.9 °C 1019.9 hPa Calm     69 % 0 mm
18:15 17.6 °C 11.8 °C 1019.5 hPa Calm     69 % 0 mm
18:20 17.4 °C 11.9 °C 1019.5 hPa Calm     70 % 0 mm
18:25 17.4 °C 12.1 °C 1019.5 hPa Calm   1.6 km/h 71 % 0 mm
18:30 17.3 °C 12 °C 1019.5 hPa SW 1.4 km/h 3.7 km/h 71 % 0 mm
18:35 17.3 °C 11.9 °C 1019.5 hPa Calm     71 % 0 mm
18:40 17.2 °C 11.9 °C 1019.5 hPa SW 0.2 km/h 1.9 km/h 71 % 0 mm
18:45 17.2 °C 12.1 °C 1019.5 hPa SW 1.1 km/h 5.6 km/h 72 % 0 mm
18:50 17.1 °C 11.8 °C 1019.9 hPa Calm     71 % 0 mm
18:55 17.1 °C 11.8 °C 1019.9 hPa SW 0.8 km/h 3.7 km/h 71 % 0 mm
19:01 17.1 °C 11.8 °C 1019.9 hPa Calm   3.7 km/h 71 % 0 mm
19:06 17 °C 11.9 °C 1019.9 hPa Calm   6.4 km/h 72 % 0 mm
19:11 16.9 °C 11.8 °C 1019.9 hPa Calm   1.6 km/h 72 % 0 mm
19:16 16.9 °C 11.8 °C 1019.5 hPa Calm     72 % 0 mm
19:21 16.9 °C 11.8 °C 1019.5 hPa SSW 0.2 km/h 1.9 km/h 72 % 0 mm
19:26 16.8 °C 11.8 °C 1019.5 hPa SSW 0.2 km/h 1.6 km/h 72 % 0 mm
19:31 16.8 °C 11.8 °C 1019.5 hPa SSW 1.6 km/h 4.8 km/h 72 % 0 mm
19:36 16.8 °C 11.8 °C 1019.9 hPa Calm   4.8 km/h 72 % 0 mm
19:41 16.8 °C 11.7 °C 1019.9 hPa Calm   3.2 km/h 72 % 0 mm
19:46 16.8 °C 11.9 °C 1019.9 hPa Calm   5.6 km/h 73 % 0 mm
19:51 16.8 °C 11.9 °C 1020.2 hPa Calm   3.2 km/h 73 % 0 mm
19:56 16.8 °C 12.1 °C 1019.9 hPa Calm   3.2 km/h 74 % 0 mm
20:01 16.7 °C 12.3 °C 1020.2 hPa SE 0.5 km/h 1.9 km/h 75 % 0 mm
20:06 16.7 °C 12.4 °C 1019.9 hPa Calm   3.7 km/h 76 % 0 mm
20:11 16.6 °C 12.3 °C 1020.2 hPa SE 2.3 km/h 5.6 km/h 76 % 0 mm
20:16 16.6 °C 12.5 °C 1020.2 hPa Calm   1.9 km/h 77 % 0 mm
20:21 16.5 °C 12.4 °C 1019.9 hPa SE 1.8 km/h 5.6 km/h 77 % 0 mm
20:26 16.4 °C 12.6 °C 1019.9 hPa Calm   5.6 km/h 78 % 0 mm
20:31 16.3 °C 12.5 °C 1019.9 hPa SE 1.1 km/h 3.7 km/h 78 % 0 mm
20:36 16.3 °C 12.6 °C 1019.9 hPa SE 0.6 km/h 1.9 km/h 79 % 0 mm
20:41 16.2 °C 12.8 °C 1019.9 hPa SE 1.4 km/h 5.6 km/h 80 % 0 mm
20:46 16.1 °C 12.8 °C 1019.9 hPa ESE 1.3 km/h 3.7 km/h 81 % 0 mm
20:51 15.9 °C 12.9 °C 1019.9 hPa SE 1.6 km/h 3.7 km/h 82 % 0.25 mm
20:56 15.8 °C 13.1 °C 1019.9 hPa SE 0.6 km/h 1.9 km/h 84 % 0.25 mm
21:01 15.7 °C 12.9 °C 1019.9 hPa SE 1.4 km/h 6.4 km/h 84 % 0.25 mm
21:06 15.6 °C 13.1 °C 1019.5 hPa SE 1 km/h 3.7 km/h 85 % 0.51 mm
21:11 15.4 °C 13.1 °C 1019.5 hPa SE 0.2 km/h 1.9 km/h 86 % 0.51 mm
21:16 15.3 °C 13 °C 1019.5 hPa SE 0.3 km/h 1.9 km/h 86 % 0.51 mm
21:26 15.2 °C 13.2 °C 1019.5 hPa ESE 0.5 km/h 3.7 km/h 88 % 0.51 mm
21:31 15.2 °C 13.2 °C 1019.2 hPa ESE 0.8 km/h 1.9 km/h 88 % 0.51 mm
21:36 15.1 °C 13.1 °C 1019.5 hPa Calm   1.9 km/h 88 % 0.51 mm
21:41 15.1 °C 13.3 °C 1019.5 hPa ESE 0.8 km/h 3.7 km/h 89 % 0.76 mm
21:46 15.1 °C 13.3 °C 1019.5 hPa ESE 0.2 km/h 5.6 km/h 89 % 0.76 mm
21:48 15.1 °C 13.3 °C 1019.5 hPa ESE 0.3 km/h 1.9 km/h 89 % 0.76 mm
21:53 15 °C 13.2 °C 1019.5 hPa Calm   1.9 km/h 89 % 0.51 mm
21:58 15 °C 13.4 °C 1019.5 hPa ESE 0.3 km/h 1.9 km/h 90 % 0.51 mm
22:03 15 °C 13.4 °C 1019.9 hPa ESE 0.3 km/h 1.9 km/h 90 % 0.51 mm
22:08 15 °C 13.4 °C 1019.5 hPa Calm     90 % 0.51 mm
22:13 15 °C 13.4 °C 1019.5 hPa ESE 0.2 km/h 1.9 km/h 90 % 0.51 mm
22:18 15 °C 13.6 °C 1019.5 hPa ESE 0.2 km/h 1.9 km/h 91 % 0.51 mm
22:23 14.9 °C 13.5 °C 1019.5 hPa ESE 0.3 km/h 1.9 km/h 91 % 0.51 mm
22:28 14.9 °C 13.5 °C 1019.5 hPa ESE 0.6 km/h 3.7 km/h 91 % 0.76 mm
22:33 15 °C 13.7 °C 1019.2 hPa ESE 0.6 km/h 1.9 km/h 92 % 0.76 mm
22:38 15 °C 13.7 °C 1019.2 hPa ESE 1.4 km/h 5.6 km/h 92 % 1.02 mm
22:44 15 °C 13.7 °C 1019.2 hPa ESE 1.3 km/h 3.7 km/h 92 % 0.76 mm
22:49 14.9 °C 13.7 °C 1019.2 hPa ESE 1.8 km/h 5.6 km/h 92 % 0.76 mm
22:54 14.9 °C 13.6 °C 1018.8 hPa ESE 0.5 km/h 3.7 km/h 92 % 1.02 mm
22:59 14.9 °C 13.6 °C 1018.8 hPa ESE 1.1 km/h 3.7 km/h 92 % 1.02 mm
23:04 14.9 °C 13.6 °C 1018.8 hPa ESE 0.3 km/h 1.9 km/h 92 % 1.02 mm
23:09 14.9 °C 13.6 °C 1018.8 hPa ESE 2.3 km/h 5.6 km/h 92 % 1.02 mm
23:15 14.8 °C 13.5 °C 1018.5 hPa ESE 0.3 km/h 3.7 km/h 92 % 1.27 mm
23:20 14.7 °C 13.4 °C 1018.5 hPa ESE 1 km/h 3.7 km/h 92 % 1.52 mm
23:21 14.7 °C 13.4 °C 1018.5 hPa ESE 1.1 km/h 3.7 km/h 92 % 1.52 mm
23:22 14.7 °C 13.4 °C 1018.5 hPa ESE 0.8 km/h 1.9 km/h 92 % 1.52 mm
23:25 14.7 °C 13.4 °C 1018.5 hPa ESE 1.9 km/h 5.6 km/h 92 % 1.27 mm
23:30 14.6 °C 13.3 °C 1018.5 hPa ESE 0.5 km/h 1.9 km/h 92 % 1.52 mm
23:32 14.6 °C 13.3 °C 1018.5 hPa ESE 1.1 km/h 3.7 km/h 92 % 1.52 mm
23:37 14.5 °C 13.2 °C 1018.5 hPa ESE 0.2 km/h 1.9 km/h 92 % 1.52 mm
23:42 14.4 °C 13.2 °C 1018.5 hPa SE 2.6 km/h 5.6 km/h 92 % 1.78 mm
23:47 14.4 °C 13.1 °C 1018.5 hPa ESE 0.3 km/h 1.9 km/h 92 % 2.29 mm
23:52 14.4 °C 13.3 °C 1018.5 hPa ESE 0.2 km/h 1.9 km/h 93 % 2.54 mm
23:57 14.3 °C 13.2 °C 1018.5 hPa ESE 0.5 km/h 1.9 km/h 93 % 3.3 mm
Crab Meadow Weather
Compliments of Weather Underground - 3 mb

Script developed by  Jim McMurry - jmcmurry@mwt.net Adapted for the template by  Wim van der Kuil - Leuven-Template.eu

Weather Terms: Watch - A watch is used when the risk of a hazardous weather or hydrologic event has increased significantly, but its occurrence, location or timing is still uncertain. It is intended to provide enough lead time so those who need to set their plans in motion can do so. A watch means that hazardous weather is possible. People should have a plan of action in case a storm threatens and they should listen for later information and possible warnings especially when planning travel or outdoor activities.